Rechercher aéroport 
image banner adimage banner adimage banner ad
image banner ad

PS80 - Robbins Nest

Situé à Quakertown, United States

ICAO - PS80, IATA -

Données fournies par Airmate  

Information générale

Coordonnées: N40°22'9" W75°23'50"
Élévation : 450 feet MSL.
Variation magnétique : -11° East
Voir autres Aéroports à Pennsylvania

Données opérationnelles

Special qualification required
Heure actuelle UTC:
Heure actuelle locale:
Météo à : KUKT - Quakertown ( 7 km )
METAR: KUKT 150655Z AUTO 00000KT 10SM SCT025 BKN060 BKN090 17/17 A2980 RMK A01
Voir NOTAMs / SUP AIP / TFR affectant cet aéroport [VIEW]
Fréquences de communication: [VIEW]

Pistes:

Coordonnées de l'aéroport

Adresse: Quakertown United States

Vue satellite de PS80